Time;durP1;ratioP1;P1;durP2;ratioP2;P2;SDS_P1;SDS_P2;PMS_P1;PMS_P2;Temp;Humidity;BMP_temperature;BMP_pressure;BME280_temperature;BME280_humidity;BME280_pressure;Samples;Min_cycle;Max_cycle;Signal;HPM_P1;HPM_P2
2022/01/13 00:01:43;;;;;;;60.83;20.83;;;;;2.90;103631.00;;;;9971135;29;20259;-78
2022/01/13 00:06:45;;;;;;;62.63;24.13;;;;;2.90;103641.00;;;;9953430;29;20219;-79
2022/01/13 00:11:49;;;;;;;55.27;22.10;;;;;2.90;103646.00;;;;9922927;29;20266;-79
2022/01/13 00:17:07;;;;;;;59.90;21.53;;;;;2.80;103649.00;;;;9939529;29;20222;-79
2022/01/13 00:22:20;;;;;;;61.93;23.27;;;;;2.80;103643.00;;;;9939602;29;20270;-79
2022/01/13 00:27:24;;;;;;;70.47;24.70;;;;;2.80;103652.00;;;;9890929;29;20194;-79
2022/01/13 00:32:30;;;;;;;65.00;23.00;;;;;2.80;103649.00;;;;9925643;29;20235;-78
2022/01/13 00:37:32;;;;;;;59.03;24.10;;;;;2.80;103648.00;;;;9937094;29;20223;-79
2022/01/13 00:42:33;;;;;;;62.40;24.23;;;;;2.80;103667.00;;;;9917069;29;20199;-79
2022/01/13 00:47:36;;;;;;;74.20;26.70;;;;;2.90;103665.00;;;;9902409;29;20199;-78
2022/01/13 00:52:39;;;;;;;68.27;27.83;;;;;2.90;103649.00;;;;9916904;29;20211;-78
2022/01/13 00:57:40;;;;;;;75.27;26.73;;;;;2.90;103656.00;;;;9902317;29;20226;-79
2022/01/13 01:02:42;;;;;;;65.83;25.70;;;;;2.80;103656.00;;;;9916099;29;20206;-78
2022/01/13 01:07:45;;;;;;;63.33;25.50;;;;;2.80;103659.00;;;;9884717;29;20262;-79
2022/01/13 01:12:47;;;;;;;71.37;27.53;;;;;2.80;103666.00;;;;9939023;29;20209;-79
2022/01/13 01:17:55;;;;;;;71.20;26.23;;;;;2.80;103664.00;;;;9938851;29;20223;-79
2022/01/13 01:23:10;;;;;;;72.30;26.03;;;;;2.80;103646.00;;;;9945634;29;20190;-78
2022/01/13 01:28:18;;;;;;;77.03;26.63;;;;;2.80;103653.00;;;;9931200;29;20221;-79
2022/01/13 01:33:20;;;;;;;70.13;30.10;;;;;2.80;103648.00;;;;9946011;29;20262;-79
2022/01/13 01:38:23;;;;;;;59.20;23.73;;;;;2.80;103640.00;;;;9960807;29;20222;-79
2022/01/13 01:43:25;;;;;;;75.03;26.37;;;;;2.70;103629.00;;;;9945479;29;20206;-79
2022/01/13 01:48:29;;;;;;;72.87;24.87;;;;;2.70;103629.00;;;;9945178;29;20247;-78
2022/01/13 01:53:32;;;;;;;71.17;28.83;;;;;2.60;103623.00;;;;9944737;29;20207;-78
2022/01/13 01:58:35;;;;;;;71.13;26.13;;;;;2.60;103632.00;;;;9945490;29;20211;-79
2022/01/13 02:03:37;;;;;;;80.20;26.20;;;;;2.70;103633.00;;;;9945371;29;20201;-79
2022/01/13 02:08:40;;;;;;;77.53;27.33;;;;;2.70;103637.00;;;;9941156;29;20230;-79
2022/01/13 02:13:48;;;;;;;79.07;28.27;;;;;2.60;103642.00;;;;9936316;29;20232;-79
2022/01/13 02:18:50;;;;;;;76.97;26.43;;;;;2.60;103650.00;;;;9937103;29;20219;-79
2022/01/13 02:23:54;;;;;;;91.17;28.80;;;;;2.60;103645.00;;;;9907625;29;20203;-79
2022/01/13 02:28:56;;;;;;;82.40;29.03;;;;;2.60;103646.00;;;;9936409;29;20194;-78
2022/01/13 02:33:58;;;;;;;73.60;26.23;;;;;2.60;103637.00;;;;9943379;29;20202;-79
2022/01/13 02:39:01;;;;;;;84.47;29.37;;;;;2.60;103640.00;;;;9930093;29;20235;-79
2022/01/13 02:44:11;;;;;;;88.67;29.53;;;;;2.50;103623.00;;;;9906417;29;20214;-79
2022/01/13 02:49:19;;;;;;;80.90;28.27;;;;;2.60;103634.00;;;;9920612;29;20229;-79
2022/01/13 02:54:22;;;;;;;85.50;29.03;;;;;2.50;103634.00;;;;9920603;29;20218;-79
2022/01/13 02:59:24;;;;;;;83.93;29.87;;;;;2.60;103617.00;;;;9905756;29;20211;-79
2022/01/13 03:04:26;;;;;;;82.10;28.63;;;;;2.60;103628.00;;;;9905477;29;20283;-79
2022/01/13 03:09:28;;;;;;;88.17;28.07;;;;;2.50;103630.00;;;;9921931;29;20239;-79
2022/01/13 03:14:30;;;;;;;82.20;30.57;;;;;2.50;103629.00;;;;9942489;29;20210;-79
2022/01/13 03:19:32;;;;;;;81.17;28.63;;;;;2.50;103623.00;;;;9942133;29;20249;-79
2022/01/13 03:24:34;;;;;;;82.20;28.87;;;;;2.50;103618.00;;;;9956592;29;20198;-78
2022/01/13 03:29:36;;;;;;;89.37;30.80;;;;;2.50;103615.00;;;;9941436;29;20199;-78
2022/01/13 03:34:38;;;;;;;86.67;30.03;;;;;2.40;103609.00;;;;9890523;30;20333;-79
2022/01/13 03:39:40;;;;;;;84.27;29.00;;;;;2.40;103614.00;;;;9885724;29;20230;-79
2022/01/13 03:44:42;;;;;;;81.13;28.67;;;;;2.40;103613.00;;;;9918110;29;20309;-78
2022/01/13 03:49:44;;;;;;;85.17;28.13;;;;;2.40;103627.00;;;;9914918;29;20199;-79
2022/01/13 03:55:24;;;;;;;89.17;29.90;;;;;2.50;103620.00;;;;9955746;29;20202;-78
2022/01/13 04:00:47;;;;;;;85.40;28.67;;;;;2.40;103609.00;;;;9929006;29;20215;-78
2022/01/13 04:06:27;;;;;;;83.80;28.13;;;;;2.40;103602.00;;;;9879977;30;20268;-78
2022/01/13 04:11:31;;;;;;;91.73;28.03;;;;;2.30;103606.00;;;;9865718;30;20211;-78
2022/01/13 04:16:36;;;;;;;79.13;24.77;;;;;2.20;103597.00;;;;9864953;30;20239;-79
2022/01/13 04:21:39;;;;;;;83.50;30.33;;;;;2.10;103613.00;;;;9879214;30;20215;-78
2022/01/13 04:26:43;;;;;;;89.47;27.67;;;;;2.10;103610.00;;;;9894160;30;20669;-78
2022/01/13 04:31:49;;;;;;;80.90;27.37;;;;;2.10;103618.00;;;;9932281;29;20202;-79
2022/01/13 04:36:51;;;;;;;80.87;24.60;;;;;2.00;103605.00;;;;9920561;29;20198;-79
2022/01/13 04:41:54;;;;;;;83.17;26.13;;;;;1.90;103602.00;;;;9879350;30;20673;-78
2022/01/13 04:46:56;;;;;;;82.17;26.67;;;;;1.90;103607.00;;;;9864563;30;20314;-78
2022/01/13 04:51:58;;;;;;;89.80;27.67;;;;;1.90;103597.00;;;;9886264;29;20210;-78
2022/01/13 04:57:14;;;;;;;92.47;25.23;;;;;1.90;103610.00;;;;9902548;29;20298;-78
2022/01/13 05:02:16;;;;;;;64.97;20.93;;;;;1.80;103617.00;;;;9954040;29;20202;-78
2022/01/13 05:07:18;;;;;;;65.80;20.77;;;;;1.80;103624.00;;;;9951930;29;20218;-78
2022/01/13 05:12:27;;;;;;;87.13;24.93;;;;;1.70;103630.00;;;;9915772;29;20298;-78
2022/01/13 05:18:00;;;;;;;68.93;22.63;;;;;1.70;103632.00;;;;9915930;29;20222;-78
2022/01/13 05:22:56;;;;;;;71.10;22.67;;;;;1.70;103620.00;;;;9900768;29;20276;-78
2022/01/13 05:27:58;;;;;;;72.40;21.83;;;;;1.60;103614.00;;;;9926389;29;20250;-78
2022/01/13 05:33:01;;;;;;;76.73;22.93;;;;;1.60;103609.00;;;;9936814;29;20207;-78
2022/01/13 05:38:05;;;;;;;73.73;22.97;;;;;1.60;103619.00;;;;9914483;29;20229;-78
2022/01/13 05:43:07;;;;;;;67.43;21.90;;;;;1.60;103609.00;;;;9900973;29;20664;-78
2022/01/13 05:48:12;;;;;;;72.50;21.77;;;;;1.60;103608.00;;;;9915610;29;20203;-78
2022/01/13 05:53:14;;;;;;;78.80;22.60;;;;;1.50;103611.00;;;;9888074;29;20866;-78
2022/01/13 05:58:16;;;;;;;76.03;23.67;;;;;1.50;103605.00;;;;9926968;29;20267;-78
2022/01/13 06:03:18;;;;;;;64.00;20.73;;;;;1.40;103618.00;;;;9952690;29;20203;-78
2022/01/13 06:08:20;;;;;;;63.57;20.70;;;;;1.40;103624.00;;;;9926054;29;20288;-78
2022/01/13 06:13:22;;;;;;;62.87;19.70;;;;;1.40;103618.00;;;;9891774;29;20717;-78
2022/01/13 06:18:25;;;;;;;68.03;20.23;;;;;1.30;103612.00;;;;9921395;29;20249;-78
2022/01/13 06:23:27;;;;;;;60.07;19.50;;;;;1.30;103618.00;;;;9906375;29;20210;-78
2022/01/13 06:28:28;;;;;;;57.97;19.03;;;;;1.30;103618.00;;;;9906121;29;20195;-78
2022/01/13 06:33:30;;;;;;;63.93;20.17;;;;;1.30;103609.00;;;;9906185;29;20207;-78
2022/01/13 06:38:33;;;;;;;57.60;21.23;;;;;1.30;103614.00;;;;9920725;29;20257;-78
2022/01/13 06:43:36;;;;;;;47.70;17.10;;;;;1.30;103613.00;;;;9905853;29;20298;-78
2022/01/13 06:48:38;;;;;;;63.67;18.27;;;;;1.30;103611.00;;;;9920697;29;20201;-78
2022/01/13 06:53:40;;;;;;;50.03;17.10;;;;;1.20;103617.00;;;;9939434;29;20218;-78
2022/01/13 06:58:45;;;;;;;59.80;18.03;;;;;1.20;103606.00;;;;9936300;29;20222;-78
2022/01/13 07:03:47;;;;;;;59.20;19.67;;;;;1.20;103612.00;;;;9934964;29;20210;-78
2022/01/13 07:08:49;;;;;;;61.97;19.97;;;;;1.20;103610.00;;;;9956985;29;20340;-78
2022/01/13 07:13:51;;;;;;;59.50;19.10;;;;;1.20;103605.00;;;;9941757;29;20210;-78
2022/01/13 07:18:53;;;;;;;57.47;20.77;;;;;1.20;103594.00;;;;9884134;29;20228;-78
2022/01/13 07:23:55;;;;;;;72.70;22.70;;;;;1.20;103597.00;;;;9928371;29;20195;-78
2022/01/13 07:28:57;;;;;;;77.67;23.13;;;;;1.30;103599.00;;;;9941394;29;20663;-78
2022/01/13 07:33:59;;;;;;;88.83;23.20;;;;;1.30;103604.00;;;;9941107;29;20262;-78
2022/01/13 07:39:02;;;;;;;94.63;26.00;;;;;1.40;103615.00;;;;9956074;29;20210;-78
2022/01/13 07:44:05;;;;;;;74.67;22.83;;;;;1.40;103621.00;;;;9940804;29;20255;-78
2022/01/13 07:49:07;;;;;;;66.53;20.00;;;;;1.40;103619.00;;;;9955578;29;20194;-78
2022/01/13 07:54:09;;;;;;;59.50;19.90;;;;;1.40;103616.00;;;;9934160;29;20621;-78
2022/01/13 07:59:11;;;;;;;63.50;21.77;;;;;1.40;103614.00;;;;9913662;29;20220;-78
2022/01/13 08:04:13;;;;;;;61.47;20.97;;;;;1.40;103626.00;;;;9880484;29;20257;-78
2022/01/13 08:09:15;;;;;;;59.33;20.13;;;;;1.40;103624.00;;;;9895599;29;20230;-78
2022/01/13 08:14:17;;;;;;;60.90;22.10;;;;;1.40;103622.00;;;;9939723;29;20628;-78
2022/01/13 08:24:40;;;;;;;56.27;19.80;;;;;1.60;103608.00;;;;9954121;29;20629;-77
2022/01/13 08:29:42;;;;;;;67.33;22.47;;;;;1.60;103622.00;;;;9938683;29;20237;-77
2022/01/13 08:34:45;;;;;;;51.43;20.10;;;;;1.70;103621.00;;;;9901304;29;20675;-78
2022/01/13 08:39:47;;;;;;;50.50;18.60;;;;;1.70;103617.00;;;;9916947;29;20230;-78
2022/01/13 08:44:50;;;;;;;59.73;21.13;;;;;1.70;103624.00;;;;9900579;29;20205;-78
2022/01/13 08:49:52;;;;;;;60.53;21.63;;;;;1.90;103620.00;;;;9938334;29;20207;-78
2022/01/13 08:54:55;;;;;;;59.83;22.17;;;;;2.00;103619.00;;;;9938218;29;20252;-78
2022/01/13 08:59:57;;;;;;;64.53;22.67;;;;;2.10;103612.00;;;;9923371;29;20214;-78
2022/01/13 09:05:04;;;;;;;65.77;24.50;;;;;2.20;103617.00;;;;9938796;29;20242;-78
2022/01/13 09:10:07;;;;;;;70.77;24.27;;;;;2.30;103614.00;;;;9952569;29;20274;-78
2022/01/13 09:15:30;;;;;;;85.10;26.90;;;;;2.40;103629.00;;;;9869856;29;20255;-78
2022/01/13 09:20:31;;;;;;;70.20;25.47;;;;;2.60;103629.00;;;;9984481;29;20218;-78
2022/01/13 09:25:33;;;;;;;63.30;23.23;;;;;2.60;103635.00;;;;9923504;29;20255;-78
2022/01/13 09:30:36;;;;;;;64.83;24.30;;;;;2.70;103642.00;;;;9953220;29;20191;-78
2022/01/13 09:35:38;;;;;;;67.80;25.87;;;;;2.80;103641.00;;;;9916099;29;20224;-78
2022/01/13 09:40:46;;;;;;;56.43;22.87;;;;;2.90;103648.00;;;;9916862;29;20297;-78
2022/01/13 09:45:48;;;;;;;69.10;27.33;;;;;3.20;103658.00;;;;9922539;29;20210;-78
2022/01/13 09:50:50;;;;;;;58.40;24.30;;;;;3.40;103659.00;;;;9922915;29;20268;-78
2022/01/13 09:55:53;;;;;;;59.97;25.63;;;;;3.70;103676.00;;;;9921756;29;20207;-78
2022/01/13 10:00:56;;;;;;;59.53;25.70;;;;;4.10;103658.00;;;;9928285;29;20287;-78
2022/01/13 10:06:01;;;;;;;73.93;27.83;;;;;4.40;103664.00;;;;9891477;29;20685;-77
2022/01/13 10:11:25;;;;;;;51.93;25.97;;;;;4.40;103667.00;;;;9921361;29;20219;-78
2022/01/13 10:16:28;;;;;;;59.10;25.97;;;;;4.30;103660.00;;;;9906660;29;20203;-78
2022/01/13 10:21:30;;;;;;;53.37;24.63;;;;;4.30;103655.00;;;;9910052;29;20268;-78
2022/01/13 10:26:34;;;;;;;45.03;23.37;;;;;4.30;103660.00;;;;9922650;29;20695;-78
2022/01/13 10:31:43;;;;;;;34.33;18.77;;;;;4.30;103660.00;;;;9913195;29;20207;-78
2022/01/13 10:37:04;;;;;;;38.23;19.80;;;;;4.30;103668.00;;;;9909659;29;20264;-77
2022/01/13 10:42:31;;;;;;;37.67;20.30;;;;;4.50;103685.00;;;;9905649;29;20219;-78
2022/01/13 10:47:33;;;;;;;38.03;20.23;;;;;4.70;103668.00;;;;9890643;29;20210;-77
2022/01/13 10:52:36;;;;;;;38.10;21.03;;;;;4.70;103659.00;;;;9917857;29;20229;-78
2022/01/13 10:57:41;;;;;;;39.07;21.00;;;;;5.00;103645.00;;;;9920411;29;20211;-78
2022/01/13 11:02:44;;;;;;;42.43;23.53;;;;;5.40;103627.00;;;;9901844;29;20248;-78
2022/01/13 11:07:46;;;;;;;38.63;22.07;;;;;5.60;103624.00;;;;9889447;29;20238;-78
2022/01/13 11:12:56;;;;;;;36.53;21.53;;;;;5.60;103617.00;;;;9918553;29;20589;-78
2022/01/13 11:17:59;;;;;;;35.67;20.67;;;;;5.80;103618.00;;;;9920085;29;20202;-78
2022/01/13 11:23:01;;;;;;;37.97;21.20;;;;;6.00;103609.00;;;;9898086;29;20741;-77
2022/01/13 11:28:08;;;;;;;57.00;27.17;;;;;6.10;103617.00;;;;9896816;30;20200;-78
2022/01/13 11:33:10;;;;;;;60.53;27.60;;;;;6.20;103620.00;;;;9893270;29;20211;-78
2022/01/13 11:38:18;;;;;;;59.57;28.47;;;;;6.10;103610.00;;;;9889638;29;20215;-78
2022/01/13 11:43:25;;;;;;;60.47;29.93;;;;;6.50;103599.00;;;;9888981;29;20329;-78
2022/01/13 11:48:30;;;;;;;60.47;30.07;;;;;7.00;103593.00;;;;9869131;29;20204;-78
2022/01/13 11:53:32;;;;;;;59.90;28.80;;;;;6.80;103574.00;;;;9899753;29;20258;-78
2022/01/13 11:58:42;;;;;;;61.13;28.20;;;;;6.90;103577.00;;;;9866815;29;20277;-78
2022/01/13 12:04:06;;;;;;;53.13;29.13;;;;;7.30;103564.00;;;;9870868;29;20241;-78
2022/01/13 12:09:32;;;;;;;51.37;27.33;;;;;7.30;103567.00;;;;9894724;30;20231;-78
2022/01/13 12:14:39;;;;;;;46.50;26.50;;;;;7.30;103552.00;;;;9879845;29;20211;-78
2022/01/13 12:19:47;;;;;;;49.07;25.07;;;;;7.60;103557.00;;;;9894426;30;20306;-78
2022/01/13 12:24:59;;;;;;;49.33;25.47;;;;;7.50;103567.00;;;;9876554;30;20211;-78
2022/01/13 12:30:10;;;;;;;45.23;22.43;;;;;7.60;103563.00;;;;9890884;30;20734;-78
2022/01/13 12:35:27;;;;;;;40.20;22.53;;;;;7.50;103560.00;;;;9893719;30;20311;-78
2022/01/13 12:40:44;;;;;;;39.03;20.20;;;;;7.40;103562.00;;;;9901635;29;20280;-78
2022/01/13 12:45:46;;;;;;;45.07;24.20;;;;;7.40;103568.00;;;;9914224;29;20199;-78
2022/01/13 12:50:48;;;;;;;42.23;20.67;;;;;7.30;103567.00;;;;9891039;29;20687;-78
2022/01/13 12:55:56;;;;;;;45.13;22.70;;;;;7.30;103568.00;;;;9950358;29;20199;-78
2022/01/13 13:01:08;;;;;;;46.77;22.73;;;;;7.40;103567.00;;;;9915687;29;20227;-77
2022/01/13 13:06:13;;;;;;;49.43;23.87;;;;;7.50;103558.00;;;;9894002;29;20285;-78
2022/01/13 13:11:15;;;;;;;47.90;23.77;;;;;7.20;103560.00;;;;9945661;29;20259;-78
2022/01/13 13:16:23;;;;;;;44.20;23.23;;;;;6.90;103561.00;;;;9936836;29;20199;-78
2022/01/13 13:21:27;;;;;;;48.60;24.53;;;;;7.10;103539.00;;;;9894762;29;20219;-78
2022/01/13 13:26:28;;;;;;;47.47;23.83;;;;;7.10;103531.00;;;;9877933;30;20253;-78
2022/01/13 13:31:30;;;;;;;48.60;24.67;;;;;6.70;103529.00;;;;9896757;29;20226;-78
2022/01/13 13:36:51;;;;;;;52.80;23.83;;;;;6.30;103522.00;;;;9886298;29;20211;-78
2022/01/13 13:42:03;;;;;;;50.20;25.03;;;;;6.00;103517.00;;;;9929778;29;20214;-78
2022/01/13 13:47:08;;;;;;;51.77;25.07;;;;;6.00;103509.00;;;;9882342;29;20269;-78
2022/01/13 13:52:11;;;;;;;50.17;24.23;;;;;5.90;103502.00;;;;9877528;29;20207;-78
2022/01/13 13:57:16;;;;;;;48.27;24.20;;;;;6.00;103509.00;;;;9898185;29;20241;-78
2022/01/13 14:02:33;;;;;;;53.67;24.90;;;;;6.10;103506.00;;;;9902791;29;20215;-78
2022/01/13 14:07:37;;;;;;;45.50;22.97;;;;;6.00;103502.00;;;;9892959;29;20321;-78
2022/01/13 14:13:01;;;;;;;38.30;16.73;;;;;6.00;103498.00;;;;9922169;29;20273;-77
2022/01/13 14:18:14;;;;;;;30.07;15.67;;;;;5.80;103501.00;;;;9890185;29;20273;-78
2022/01/13 14:23:25;;;;;;;24.07;13.53;;;;;5.60;103504.00;;;;9910334;29;20223;-78
2022/01/13 14:28:30;;;;;;;29.67;15.40;;;;;5.30;103502.00;;;;9910516;29;20207;-78
2022/01/13 14:33:33;;;;;;;33.77;17.10;;;;;5.10;103486.00;;;;9898084;30;20302;-78
2022/01/13 14:38:45;;;;;;;38.60;16.47;;;;;5.00;103482.00;;;;9934827;29;20258;-78
2022/01/13 14:44:00;;;;;;;39.73;17.53;;;;;5.00;103487.00;;;;9920511;29;20214;-78
2022/01/13 14:49:04;;;;;;;37.63;17.10;;;;;5.00;103477.00;;;;9905280;29;20199;-78
2022/01/13 14:54:06;;;;;;;37.47;17.70;;;;;5.00;103474.00;;;;9882890;30;20204;-78
2022/01/13 14:59:08;;;;;;;46.50;19.33;;;;;4.90;103473.00;;;;9917803;29;20218;-78
2022/01/13 15:04:10;;;;;;;52.80;20.27;;;;;4.80;103473.00;;;;9932447;29;20203;-78
2022/01/13 15:09:12;;;;;;;56.13;20.77;;;;;4.70;103475.00;;;;9928081;29;20226;-78
2022/01/13 15:14:14;;;;;;;48.90;20.67;;;;;4.70;103470.00;;;;9896110;29;20203;-78
2022/01/13 15:19:16;;;;;;;54.60;20.87;;;;;4.80;103470.00;;;;9915174;29;20234;-78
2022/01/13 15:24:19;;;;;;;45.77;19.80;;;;;4.80;103479.00;;;;9918399;29;20280;-78
2022/01/13 15:29:20;;;;;;;44.83;18.37;;;;;4.70;103473.00;;;;9936707;29;20212;-78
2022/01/13 15:34:22;;;;;;;40.77;17.60;;;;;4.60;103475.00;;;;9930236;29;20203;-77
2022/01/13 15:39:24;;;;;;;47.37;18.73;;;;;4.70;103477.00;;;;9924914;29;20222;-77
2022/01/13 15:44:26;;;;;;;46.30;18.60;;;;;4.70;103465.00;;;;9932191;29;20214;-77
2022/01/13 15:49:28;;;;;;;48.90;19.50;;;;;4.70;103462.00;;;;9931319;29;20727;-77
2022/01/13 15:54:30;;;;;;;48.53;20.60;;;;;4.70;103463.00;;;;9910714;29;20645;-78
2022/01/13 15:59:32;;;;;;;52.40;19.97;;;;;4.60;103453.00;;;;9915664;29;20219;-78
2022/01/13 16:04:35;;;;;;;58.77;26.93;;;;;4.60;103449.00;;;;9910999;29;20642;-79
2022/01/13 16:09:38;;;;;;;51.47;25.07;;;;;4.40;103450.00;;;;9921198;29;20238;-78
2022/01/13 16:14:41;;;;;;;47.00;20.90;;;;;4.30;103461.00;;;;9917435;29;20207;-78
2022/01/13 16:19:43;;;;;;;54.80;22.83;;;;;4.10;103451.00;;;;9902459;29;20226;-79
2022/01/13 16:24:45;;;;;;;65.87;26.03;;;;;4.10;103461.00;;;;9887543;29;20676;-78
2022/01/13 16:29:55;;;;;;;67.37;25.90;;;;;4.00;103468.00;;;;9931792;29;20207;-78
2022/01/13 16:34:59;;;;;;;62.47;23.80;;;;;3.90;103466.00;;;;9902013;29;20210;-78
2022/01/13 16:40:03;;;;;;;53.00;24.33;;;;;3.80;103477.00;;;;9916828;29;20219;-78
2022/01/13 16:45:08;;;;;;;54.53;24.47;;;;;3.70;103479.00;;;;9931605;29;20226;-78
2022/01/13 16:50:11;;;;;;;60.57;25.97;;;;;3.70;103468.00;;;;9916081;29;20260;-79
2022/01/13 16:55:15;;;;;;;54.80;24.70;;;;;3.60;103472.00;;;;9901506;29;20744;-78
2022/01/13 17:00:23;;;;;;;53.13;24.80;;;;;3.50;103470.00;;;;9901191;29;20211;-79
2022/01/13 17:05:25;;;;;;;62.57;24.50;;;;;3.50;103470.00;;;;9950164;29;20272;-78
2022/01/13 17:10:32;;;;;;;59.07;26.37;;;;;3.40;103462.00;;;;9938605;29;20226;-79
2022/01/13 17:15:34;;;;;;;49.80;24.80;;;;;3.40;103478.00;;;;9924307;29;20226;-78
2022/01/13 17:20:39;;;;;;;68.30;27.40;;;;;3.40;103474.00;;;;9939340;29;20583;-78
2022/01/13 17:25:42;;;;;;;63.47;25.17;;;;;3.40;103475.00;;;;9952390;29;20194;-78
2022/01/13 17:30:44;;;;;;;52.00;23.63;;;;;3.40;103471.00;;;;9937029;29;20240;-78
2022/01/13 17:35:46;;;;;;;60.27;25.47;;;;;3.40;103479.00;;;;9896963;29;20199;-79
2022/01/13 17:40:52;;;;;;;68.27;30.77;;;;;3.50;103466.00;;;;9905522;29;20299;-78
2022/01/13 17:45:54;;;;;;;60.30;29.13;;;;;3.50;103479.00;;;;9886014;29;20236;-78
2022/01/13 17:50:55;;;;;;;68.20;25.77;;;;;3.50;103470.00;;;;9900652;29;20229;-78
2022/01/13 17:55:58;;;;;;;74.13;27.30;;;;;3.50;103478.00;;;;9915512;29;20234;-78
2022/01/13 18:01:01;;;;;;;55.67;26.60;;;;;3.40;103483.00;;;;9902225;29;20584;-78
2022/01/13 18:06:04;;;;;;;63.97;26.90;;;;;3.40;103480.00;;;;9929623;29;20206;-78
2022/01/13 18:11:07;;;;;;;60.13;28.07;;;;;3.40;103466.00;;;;9930688;29;20267;-78
2022/01/13 18:16:09;;;;;;;66.90;25.73;;;;;3.50;103461.00;;;;9943072;29;20663;-79
2022/01/13 18:21:14;;;;;;;53.80;26.00;;;;;3.40;103465.00;;;;9929670;29;20583;-78
2022/01/13 18:26:17;;;;;;;84.73;28.00;;;;;3.30;103462.00;;;;9933669;29;20574;-78
2022/01/13 18:31:18;;;;;;;61.00;27.07;;;;;3.20;103448.00;;;;9907962;29;20234;-78
2022/01/13 18:36:20;;;;;;;62.80;27.87;;;;;3.20;103454.00;;;;9912364;29;20203;-78
2022/01/13 18:41:22;;;;;;;67.10;29.73;;;;;3.30;103439.00;;;;9920660;29;20264;-78
2022/01/13 18:46:24;;;;;;;77.93;29.07;;;;;3.30;103440.00;;;;9906241;29;20256;-78
2022/01/13 18:51:26;;;;;;;62.73;29.03;;;;;3.20;103438.00;;;;9920486;29;20202;-79
2022/01/13 18:56:28;;;;;;;69.13;29.17;;;;;3.20;103436.00;;;;9935210;29;20195;-78
2022/01/13 19:01:30;;;;;;;65.63;29.13;;;;;3.20;103436.00;;;;9925073;29;20548;-78
2022/01/13 19:06:32;;;;;;;135.67;33.40;;;;;3.20;103432.00;;;;9900355;29;20222;-79
2022/01/13 19:11:34;;;;;;;104.40;30.90;;;;;3.10;103439.00;;;;9915791;29;20247;-79
2022/01/13 19:16:36;;;;;;;111.00;29.67;;;;;3.00;103440.00;;;;9930696;29;20207;-78
2022/01/13 19:21:41;;;;;;;79.53;31.27;;;;;3.00;103438.00;;;;9919394;29;20215;-78
2022/01/13 19:26:44;;;;;;;80.33;29.60;;;;;3.00;103428.00;;;;9918938;29;20199;-78
2022/01/13 19:31:46;;;;;;;98.30;29.23;;;;;2.90;103431.00;;;;9904487;29;20281;-78
2022/01/13 19:36:48;;;;;;;94.13;31.63;;;;;3.00;103413.00;;;;9881763;30;20211;-79
2022/01/13 19:41:52;;;;;;;81.97;32.80;;;;;3.00;103418.00;;;;9881707;30;20255;-78
2022/01/13 19:46:54;;;;;;;74.40;31.23;;;;;3.00;103418.00;;;;9896518;30;20273;-78
2022/01/13 19:51:55;;;;;;;114.50;33.87;;;;;3.00;103411.00;;;;9881417;30;20211;-78
2022/01/13 19:56:57;;;;;;;92.80;31.70;;;;;3.00;103402.00;;;;9866825;30;20207;-79
2022/01/13 20:01:59;;;;;;;87.83;34.07;;;;;3.00;103413.00;;;;9880387;30;20637;-79
2022/01/13 20:07:02;;;;;;;76.23;33.27;;;;;3.00;103403.00;;;;9933271;29;20234;-78
2022/01/13 20:12:05;;;;;;;108.63;34.90;;;;;3.00;103392.00;;;;9888639;29;20976;-78
2022/01/13 20:17:07;;;;;;;128.03;35.90;;;;;2.90;103402.00;;;;9904151;29;20712;-78
2022/01/13 20:22:15;;;;;;;129.27;32.13;;;;;2.70;103391.00;;;;9918038;29;20671;-78
2022/01/13 20:27:17;;;;;;;119.60;35.37;;;;;2.70;103401.00;;;;9916518;29;20256;-78
2022/01/13 20:32:19;;;;;;;109.23;33.93;;;;;2.80;103387.00;;;;9917255;29;20199;-78
2022/01/13 20:37:21;;;;;;;89.53;30.50;;;;;2.80;103383.00;;;;9916578;29;20271;-78
2022/01/13 20:42:23;;;;;;;80.43;31.13;;;;;2.90;103384.00;;;;9901836;29;20219;-78
2022/01/13 20:47:25;;;;;;;83.50;30.57;;;;;2.90;103382.00;;;;9901292;29;20203;-78
2022/01/13 20:52:27;;;;;;;111.13;33.47;;;;;2.80;103387.00;;;;9916825;29;20249;-78
2022/01/13 20:57:32;;;;;;;89.10;32.00;;;;;2.80;103380.00;;;;9901310;29;20252;-78
2022/01/13 21:02:39;;;;;;;81.63;31.23;;;;;2.80;103386.00;;;;9919371;29;20207;-78
2022/01/13 21:07:41;;;;;;;69.83;30.17;;;;;2.70;103387.00;;;;9915111;29;20239;-78
2022/01/13 21:12:43;;;;;;;56.00;26.93;;;;;2.70;103391.00;;;;9915882;29;20283;-78
2022/01/13 21:17:45;;;;;;;60.97;27.10;;;;;2.60;103376.00;;;;9915779;29;20199;-78
2022/01/13 21:22:48;;;;;;;59.07;27.27;;;;;2.50;103394.00;;;;9922340;29;20202;-78
2022/01/13 21:27:52;;;;;;;65.87;28.10;;;;;2.50;103387.00;;;;9936844;29;20199;-79
2022/01/13 21:32:56;;;;;;;63.77;27.03;;;;;2.40;103398.00;;;;9931728;29;20199;-78
2022/01/13 21:37:58;;;;;;;65.60;25.00;;;;;2.30;103387.00;;;;9919940;29;20209;-78
2022/01/13 21:43:00;;;;;;;64.87;27.00;;;;;2.30;103394.00;;;;9921495;29;20234;-78
2022/01/13 21:48:10;;;;;;;63.33;27.43;;;;;2.20;103390.00;;;;9920228;29;20198;-78
2022/01/13 21:53:14;;;;;;;60.80;25.70;;;;;2.10;103389.00;;;;9944301;29;20198;-78
2022/01/13 21:58:16;;;;;;;106.50;29.30;;;;;2.00;103386.00;;;;9901700;29;20271;-78
2022/01/13 22:03:20;;;;;;;69.67;27.43;;;;;1.90;103382.00;;;;9911139;29;20267;-78
2022/01/13 22:09:39;;;;;;;77.20;29.37;;;;;1.80;103379.00;;;;9922359;29;20313;-78
2022/01/13 22:13:51;;;;;;;147.73;36.73;;;;;1.80;103377.00;;;;9916553;29;20210;-78
2022/01/13 22:18:53;;;;;;;113.37;32.27;;;;;1.70;103379.00;;;;9940334;29;20250;-78
2022/01/13 22:23:55;;;;;;;127.83;36.40;;;;;1.70;103381.00;;;;9886873;29;20688;-78
2022/01/13 22:28:57;;;;;;;177.90;40.40;;;;;1.60;103375.00;;;;9909897;29;20207;-78
2022/01/13 22:33:59;;;;;;;173.03;39.10;;;;;1.50;103376.00;;;;9897876;29;20195;-79
2022/01/13 22:39:05;;;;;;;138.20;31.53;;;;;1.50;103372.00;;;;9903987;29;20234;-79
2022/01/13 22:44:07;;;;;;;120.73;31.50;;;;;1.50;103381.00;;;;9898548;29;20223;-79
2022/01/13 22:49:09;;;;;;;216.63;35.50;;;;;1.50;103384.00;;;;9887893;29;20261;-78
2022/01/13 22:54:11;;;;;;;187.47;35.10;;;;;1.50;103379.00;;;;9898419;29;20218;-79
2022/01/13 22:59:14;;;;;;;139.20;34.53;;;;;1.50;103378.00;;;;9881075;29;20269;-78
2022/01/13 23:04:15;;;;;;;175.33;37.00;;;;;1.40;103379.00;;;;9903653;29;20225;-79
2022/01/13 23:09:18;;;;;;;163.40;33.03;;;;;1.30;103372.00;;;;9886447;29;20300;-79
2022/01/13 23:14:30;;;;;;;105.73;27.57;;;;;1.30;103366.00;;;;9898763;29;20207;-79
2022/01/13 23:24:52;;;;;;;170.40;35.60;;;;;1.30;103369.00;;;;9892644;29;20241;-79
2022/01/13 23:29:57;;;;;;;181.23;34.23;;;;;1.20;103362.00;;;;9893975;29;20330;-78
2022/01/13 23:34:59;;;;;;;91.70;28.80;;;;;1.20;103353.00;;;;9889736;29;20207;-78
2022/01/13 23:40:03;;;;;;;100.07;26.90;;;;;1.20;103359.00;;;;9892120;29;20219;-79
2022/01/13 23:45:08;;;;;;;146.33;31.40;;;;;1.10;103353.00;;;;9891689;29;20248;-78
2022/01/13 23:50:10;;;;;;;69.93;29.03;;;;;1.00;103340.00;;;;9887622;30;20298;-78
2022/01/13 23:55:12;;;;;;;126.80;30.17;;;;;0.90;103334.00;;;;9858849;30;20630;-78
